Time,TemperatureF,DewpointF,PressureIn,WindDirection,WindDirectionDegrees,WindSpeedMPH,WindSpeedGustMPH,Humidity,HourlyPrecipIn,Conditions,Clouds,dailyrainin,SolarRadiationWatts/m^2,SoftwareType,DateUTC
2013-08-04 00:02:00,74.7,71.2,30.02,NNE,33,0.0,0.0,89,0.00,,,0.00,0.00,VWS V14.01,2013-08-04 05:02:00,
2013-08-04 00:07:00,74.6,71.2,30.02,NNE,33,0.0,1.0,89,0.00,,,0.00,0.00,VWS V14.01,2013-08-04 05:07:00,
2013-08-04 00:12:00,74.5,71.4,30.02,NNE,33,0.0,2.0,90,0.00,,,0.00,0.00,VWS V14.01,2013-08-04 05:12:00,
2013-08-04 00:17:00,74.5,71.4,30.02,NNE,33,0.0,2.0,90,0.00,,,0.00,0.00,VWS V14.01,2013-08-04 05:17:00,
2013-08-04 00:22:00,74.5,71.4,30.02,NNE,33,0.0,1.0,90,0.00,,,0.00,0.00,VWS V14.01,2013-08-04 05:22:00,
2013-08-04 00:27:00,74.4,71.3,30.03,NNE,33,0.0,2.0,90,0.00,,,0.00,0.00,VWS V14.01,2013-08-04 05:27:00,
2013-08-04 00:32:00,74.4,71.3,30.03,NNE,33,0.0,2.0,90,0.00,,,0.00,0.00,VWS V14.01,2013-08-04 05:32:00,
2013-08-04 00:37:00,74.4,71.3,30.03,NNE,33,0.0,2.0,90,0.00,,,0.00,0.00,VWS V14.01,2013-08-04 05:37:00,
2013-08-04 00:42:00,74.3,71.2,30.03,NNE,33,0.0,0.0,90,0.00,,,0.00,0.00,VWS V14.01,2013-08-04 05:42:00,
2013-08-04 00:47:00,74.2,71.1,30.03,NNE,33,0.0,0.0,90,0.00,,,0.00,0.00,VWS V14.01,2013-08-04 05:47:00,
2013-08-04 00:52:00,74.2,71.1,30.03,NNE,33,0.0,0.0,90,0.00,,,0.00,0.00,VWS V14.01,2013-08-04 05:52:00,
2013-08-04 00:57:00,74.2,71.1,30.03,NNE,33,0.0,1.0,90,0.00,,,0.00,0.00,VWS V14.01,2013-08-04 05:57:00,
2013-08-04 01:02:00,74.1,71.0,30.03,NNE,33,0.0,0.0,90,0.00,,,0.00,0.00,VWS V14.01,2013-08-04 06:02:00,
2013-08-04 01:07:00,74.0,70.9,30.03,NNE,33,0.0,0.0,90,0.00,,,0.00,0.00,VWS V14.01,2013-08-04 06:07:00,
2013-08-04 01:12:00,73.9,70.8,30.03,NNE,33,0.0,0.0,90,0.00,,,0.00,0.00,VWS V14.01,2013-08-04 06:12:00,
2013-08-04 01:17:00,73.9,70.8,30.03,NNE,33,0.0,0.0,90,0.00,,,0.00,0.00,VWS V14.01,2013-08-04 06:17:00,
2013-08-04 01:22:00,73.7,70.6,30.03,NNE,33,0.0,0.0,90,0.00,,,0.00,0.00,VWS V14.01,2013-08-04 06:22:00,
2013-08-04 01:27:00,73.7,70.9,30.03,NNE,33,0.0,0.0,91,0.00,,,0.00,0.00,VWS V14.01,2013-08-04 06:27:00,
2013-08-04 01:32:00,73.5,70.7,30.03,NNE,33,0.0,0.0,91,0.00,,,0.00,0.00,VWS V14.01,2013-08-04 06:32:00,
2013-08-04 01:37:00,73.3,70.5,30.03,NNE,33,0.0,0.0,91,0.00,,,0.00,0.00,VWS V14.01,2013-08-04 06:37:00,
2013-08-04 01:42:00,73.1,70.3,30.03,NNE,33,0.0,0.0,91,0.00,,,0.00,0.00,VWS V14.01,2013-08-04 06:42:00,
2013-08-04 01:47:00,73.1,70.3,30.02,NNE,33,0.0,0.0,91,0.00,,,0.00,0.00,VWS V14.01,2013-08-04 06:47:00,
2013-08-04 01:52:00,73.0,70.2,30.02,NNE,33,0.0,0.0,91,0.00,,,0.00,0.00,VWS V14.01,2013-08-04 06:52:00,
2013-08-04 01:57:00,72.9,70.1,30.02,NNE,33,0.0,0.0,91,0.00,,,0.00,0.00,VWS V14.01,2013-08-04 06:57:00,
2013-08-04 02:02:00,72.8,70.3,30.02,NNE,33,0.0,0.0,92,0.00,,,0.00,0.00,VWS V14.01,2013-08-04 07:02:00,
2013-08-04 02:07:00,72.8,70.3,30.02,NNE,33,0.0,0.0,92,0.00,,,0.00,0.00,VWS V14.01,2013-08-04 07:07:00,
2013-08-04 02:12:00,72.6,70.2,30.02,NNE,33,0.0,0.0,92,0.00,,,0.00,0.00,VWS V14.01,2013-08-04 07:12:00,
2013-08-04 02:17:00,72.5,70.1,30.01,NNE,33,0.0,0.0,92,0.00,,,0.00,0.00,VWS V14.01,2013-08-04 07:17:00,
2013-08-04 02:22:00,72.5,70.1,30.01,NNE,33,0.0,0.0,92,0.00,,,0.00,0.00,VWS V14.01,2013-08-04 07:22:00,
2013-08-04 02:27:00,72.5,70.1,30.01,NNE,33,0.0,0.0,92,0.00,,,0.00,0.00,VWS V14.01,2013-08-04 07:27:00,
2013-08-04 02:32:00,72.4,69.9,30.01,NNE,33,0.0,0.0,92,0.00,,,0.00,0.00,VWS V14.01,2013-08-04 07:32:00,
2013-08-04 02:37:00,72.3,69.8,30.01,NNE,33,0.0,0.0,92,0.00,,,0.00,0.00,VWS V14.01,2013-08-04 07:37:00,
2013-08-04 02:42:00,72.1,69.7,30.01,NNE,33,0.0,0.0,92,0.00,,,0.00,0.00,VWS V14.01,2013-08-04 07:42:00,
2013-08-04 02:47:00,72.0,69.9,30.01,NNE,33,0.0,0.0,93,0.00,,,0.00,0.00,VWS V14.01,2013-08-04 07:47:00,
2013-08-04 02:52:00,72.1,70.0,30.01,NNE,33,0.0,0.0,93,0.00,,,0.00,0.00,VWS V14.01,2013-08-04 07:52:00,
2013-08-04 02:57:00,72.1,70.0,30.01,NNE,33,0.0,0.0,93,0.00,,,0.00,0.00,VWS V14.01,2013-08-04 07:57:00,
2013-08-04 03:02:00,72.1,70.0,30.02,NNE,33,0.0,0.0,93,0.00,,,0.00,0.00,VWS V14.01,2013-08-04 08:02:00,
2013-08-04 03:07:00,72.4,70.3,30.02,NNE,33,0.0,0.0,93,0.00,,,0.00,0.00,VWS V14.01,2013-08-04 08:07:00,
2013-08-04 03:12:00,72.5,70.4,30.02,NNE,33,0.0,0.0,93,0.00,,,0.00,0.00,VWS V14.01,2013-08-04 08:12:00,
2013-08-04 03:17:00,72.6,70.5,30.02,NNE,33,0.0,0.0,93,0.00,,,0.00,0.00,VWS V14.01,2013-08-04 08:17:00,
2013-08-04 03:22:00,72.5,70.4,30.01,NNE,33,0.0,0.0,93,0.00,,,0.00,0.00,VWS V14.01,2013-08-04 08:22:00,
2013-08-04 03:27:00,72.5,70.4,30.01,NNE,33,0.0,0.0,93,0.00,,,0.00,0.00,VWS V14.01,2013-08-04 08:27:00,
2013-08-04 03:32:00,72.6,70.5,30.01,NNE,33,0.0,1.0,93,0.00,,,0.00,0.00,VWS V14.01,2013-08-04 08:32:00,
2013-08-04 03:37:00,72.6,70.5,30.01,NNE,33,0.0,1.0,93,0.00,,,0.00,0.00,VWS V14.01,2013-08-04 08:37:00,
2013-08-04 03:42:00,72.6,70.5,30.01,NNE,33,0.0,1.0,93,0.00,,,0.00,0.00,VWS V14.01,2013-08-04 08:42:00,
2013-08-04 03:47:00,72.6,70.5,30.01,NNE,33,0.0,1.0,93,0.00,,,0.00,0.00,VWS V14.01,2013-08-04 08:47:00,
2013-08-04 03:52:00,72.6,70.5,30.01,NNE,33,0.0,0.0,93,0.00,,,0.00,0.00,VWS V14.01,2013-08-04 08:52:00,
2013-08-04 03:57:00,72.6,70.5,30.00,NNE,33,0.0,0.0,93,0.00,,,0.00,0.00,VWS V14.01,2013-08-04 08:57:00,
2013-08-04 04:02:00,72.5,70.4,30.00,NNE,33,0.0,1.0,93,0.00,,,0.00,0.00,VWS V14.01,2013-08-04 09:02:00,
2013-08-04 04:07:00,72.4,70.3,30.01,NNE,33,0.0,1.0,93,0.00,,,0.00,0.00,VWS V14.01,2013-08-04 09:07:00,
2013-08-04 04:12:00,72.3,70.2,30.00,NNE,33,0.0,0.0,93,0.00,,,0.00,0.00,VWS V14.01,2013-08-04 09:12:00,
2013-08-04 04:17:00,72.1,70.0,30.01,NNE,33,0.0,0.0,93,0.00,,,0.00,0.00,VWS V14.01,2013-08-04 09:17:00,
2013-08-04 04:22:00,72.0,69.9,30.01,NNE,33,0.0,0.0,93,0.00,,,0.00,0.00,VWS V14.01,2013-08-04 09:22:00,
2013-08-04 04:27:00,71.9,69.8,30.01,NNE,33,0.0,0.0,93,0.00,,,0.00,0.00,VWS V14.01,2013-08-04 09:27:00,
2013-08-04 04:32:00,71.8,69.7,30.02,NNE,33,0.0,0.0,93,0.00,,,0.00,0.00,VWS V14.01,2013-08-04 09:32:00,
2013-08-04 04:37:00,71.8,69.7,30.02,NNE,33,0.0,0.0,93,0.00,,,0.00,0.00,VWS V14.01,2013-08-04 09:37:00,
2013-08-04 04:42:00,71.7,69.6,30.02,NNE,33,0.0,0.0,93,0.00,,,0.00,0.00,VWS V14.01,2013-08-04 09:42:00,
2013-08-04 04:47:00,71.7,69.6,30.02,NNE,33,0.0,0.0,93,0.00,,,0.00,0.00,VWS V14.01,2013-08-04 09:47:00,
2013-08-04 04:52:00,71.7,69.9,30.02,NNE,33,0.0,0.0,94,0.00,,,0.00,0.00,VWS V14.01,2013-08-04 09:52:00,
2013-08-04 04:57:00,71.7,69.9,30.03,NNE,33,0.0,0.0,94,0.00,,,0.00,0.00,VWS V14.01,2013-08-04 09:57:00,
2013-08-04 05:02:00,71.7,69.9,30.03,NNE,33,0.0,0.0,94,0.00,,,0.00,0.00,VWS V14.01,2013-08-04 10:02:00,
2013-08-04 05:07:00,71.7,69.9,30.03,NNE,33,0.0,0.0,94,0.00,,,0.00,0.00,VWS V14.01,2013-08-04 10:07:00,
2013-08-04 05:12:00,71.6,69.8,30.03,NNE,33,0.0,0.0,94,0.00,,,0.00,0.00,VWS V14.01,2013-08-04 10:12:00,
2013-08-04 05:17:00,71.5,69.7,30.03,NNE,33,0.0,0.0,94,0.00,,,0.00,0.00,VWS V14.01,2013-08-04 10:17:00,
2013-08-04 05:22:00,71.6,69.8,30.03,NNE,33,0.0,0.0,94,0.00,,,0.00,0.00,VWS V14.01,2013-08-04 10:22:00,
2013-08-04 05:27:00,71.5,69.7,30.04,NNE,33,0.0,0.0,94,0.00,,,0.00,0.00,VWS V14.01,2013-08-04 10:27:00,
2013-08-04 05:32:00,71.4,69.6,30.04,NNE,33,0.0,0.0,94,0.00,,,0.00,0.00,VWS V14.01,2013-08-04 10:32:00,
2013-08-04 05:37:00,71.3,69.5,30.05,NNE,33,0.0,0.0,94,0.00,,,0.00,0.00,VWS V14.01,2013-08-04 10:37:00,
2013-08-04 05:42:00,71.3,69.5,30.05,NNE,33,0.0,0.0,94,0.00,,,0.00,0.00,VWS V14.01,2013-08-04 10:42:00,
2013-08-04 05:47:00,71.2,69.4,30.05,NNE,33,0.0,0.0,94,0.00,,,0.00,0.00,VWS V14.01,2013-08-04 10:47:00,
2013-08-04 05:52:00,71.1,69.3,30.05,NNE,33,0.0,0.0,94,0.00,,,0.00,0.00,VWS V14.01,2013-08-04 10:52:00,
2013-08-04 05:57:00,71.1,69.3,30.05,NNE,33,0.0,0.0,94,0.00,,,0.00,0.00,VWS V14.01,2013-08-04 10:57:00,
2013-08-04 06:02:00,71.1,69.3,30.05,NNE,33,0.0,0.0,94,0.00,,,0.00,0.00,VWS V14.01,2013-08-04 11:02:00,
2013-08-04 06:07:00,71.1,69.3,30.05,NNE,33,0.0,0.0,94,0.00,,,0.00,0.00,VWS V14.01,2013-08-04 11:07:00,
2013-08-04 06:12:00,71.1,69.3,30.05,NNE,33,0.0,0.0,94,0.00,,,0.00,0.00,VWS V14.01,2013-08-04 11:12:00,
2013-08-04 06:17:00,71.0,69.2,30.05,NNE,33,0.0,0.0,94,0.00,,,0.00,5.00,VWS V14.01,2013-08-04 11:17:00,
2013-08-04 06:22:00,71.0,69.2,30.05,NNE,33,0.0,0.0,94,0.00,,,0.00,7.00,VWS V14.01,2013-08-04 11:22:00,
2013-08-04 06:27:00,71.1,69.3,30.05,NNE,33,0.0,0.0,94,0.00,,,0.00,14.00,VWS V14.01,2013-08-04 11:27:00,
2013-08-04 06:32:00,71.4,69.6,30.05,NNE,33,0.0,0.0,94,0.00,,,0.00,21.00,VWS V14.01,2013-08-04 11:32:00,
2013-08-04 06:37:00,71.6,70.1,30.06,NE,34,0.0,0.0,95,0.00,,,0.00,32.00,VWS V14.01,2013-08-04 11:37:00,
2013-08-04 06:42:00,71.7,70.2,30.05,NNE,33,0.0,0.0,95,0.00,,,0.00,44.00,VWS V14.01,2013-08-04 11:42:00,
2013-08-04 06:47:00,71.9,70.1,30.05,NNE,33,0.0,0.0,94,0.00,,,0.00,46.00,VWS V14.01,2013-08-04 11:47:00,
2013-08-04 06:52:00,72.0,70.2,30.06,NNE,33,0.0,0.0,94,0.00,,,0.00,47.00,VWS V14.01,2013-08-04 11:52:00,
2013-08-04 06:57:00,72.2,70.4,30.06,NNE,33,0.0,0.0,94,0.00,,,0.00,46.00,VWS V14.01,2013-08-04 11:57:00,
2013-08-04 07:02:00,72.3,70.8,30.05,NNE,32,0.0,0.0,95,0.00,,,0.00,65.00,VWS V14.01,2013-08-04 12:02:00,
2013-08-04 07:07:00,72.5,71.0,30.05,NNE,33,0.0,1.0,95,0.00,,,0.00,70.00,VWS V14.01,2013-08-04 12:07:00,
2013-08-04 07:12:00,72.7,71.2,30.05,NNE,33,0.0,0.0,95,0.00,,,0.00,83.00,VWS V14.01,2013-08-04 12:12:00,
2013-08-04 07:18:00,72.9,71.4,30.05,NE,34,0.0,2.0,95,0.00,,,0.00,134.00,VWS V14.01,2013-08-04 12:18:00,
2013-08-04 07:23:00,73.3,71.8,30.05,NNE,33,0.0,0.0,95,0.00,,,0.00,111.00,VWS V14.01,2013-08-04 12:23:00,
2013-08-04 07:28:00,73.5,71.7,30.05,NNE,33,0.0,2.0,94,0.00,,,0.00,141.00,VWS V14.01,2013-08-04 12:28:00,
2013-08-04 07:33:00,73.8,72.3,30.05,NNE,32,0.0,1.0,95,0.00,,,0.00,185.00,VWS V14.01,2013-08-04 12:33:00,
2013-08-04 07:37:00,74.2,72.4,30.05,NNE,32,1.0,1.0,94,0.00,,,0.00,185.00,VWS V14.01,2013-08-04 12:37:00,
2013-08-04 07:43:00,74.5,72.7,30.05,NE,36,0.0,2.0,94,0.00,,,0.00,183.00,VWS V14.01,2013-08-04 12:43:00,
2013-08-04 07:47:00,75.0,73.2,30.05,NE,36,0.0,2.0,94,0.00,,,0.00,195.00,VWS V14.01,2013-08-04 12:47:00,
2013-08-04 07:53:00,75.4,73.2,30.05,NE,36,0.0,2.0,93,0.00,,,0.00,200.00,VWS V14.01,2013-08-04 12:53:00,
2013-08-04 07:57:00,75.7,73.5,30.05,NE,49,1.0,3.0,93,0.00,,,0.00,230.00,VWS V14.01,2013-08-04 12:57:00,
2013-08-04 08:02:00,76.1,73.6,30.05,NE,45,0.0,2.0,92,0.00,,,0.00,248.00,VWS V14.01,2013-08-04 13:02:00,
2013-08-04 08:08:00,76.6,73.8,30.06,ENE,57,2.0,4.0,91,0.00,,,0.00,230.00,VWS V14.01,2013-08-04 13:08:00,
2013-08-04 08:13:00,77.1,73.6,30.06,NE,49,0.0,3.0,89,0.00,,,0.00,290.00,VWS V14.01,2013-08-04 13:13:00,
2013-08-04 08:17:00,77.4,73.6,30.06,ENE,71,0.0,7.0,88,0.00,,,0.00,302.00,VWS V14.01,2013-08-04 13:17:00,
2013-08-04 08:22:00,77.8,73.6,30.06,East,97,1.0,7.0,87,0.00,,,0.00,265.00,VWS V14.01,2013-08-04 13:22:00,
2013-08-04 08:28:00,77.9,73.4,30.06,ENE,68,0.0,7.0,86,0.00,,,0.00,294.00,VWS V14.01,2013-08-04 13:28:00,
2013-08-04 08:33:00,78.1,73.6,30.06,East,97,1.0,6.0,86,0.00,,,0.00,267.00,VWS V14.01,2013-08-04 13:33:00,
2013-08-04 08:38:00,78.3,73.8,30.06,NE,41,2.0,6.0,86,0.00,,,0.00,392.00,VWS V14.01,2013-08-04 13:38:00,
2013-08-04 08:43:00,78.7,73.8,30.07,NE,34,2.0,5.0,85,0.00,,,0.00,441.00,VWS V14.01,2013-08-04 13:43:00,
2013-08-04 08:48:00,79.2,73.9,30.06,ENE,75,7.0,7.0,84,0.00,,,0.00,446.00,VWS V14.01,2013-08-04 13:48:00,
2013-08-04 08:52:00,79.2,73.9,30.06,East,100,3.0,6.0,84,0.00,,,0.00,494.00,VWS V14.01,2013-08-04 13:52:00,
2013-08-04 08:58:00,79.8,74.5,30.06,East,101,3.0,6.0,84,0.00,,,0.00,501.00,VWS V14.01,2013-08-04 13:58:00,
2013-08-04 09:03:00,80.5,74.9,30.06,East,92,1.0,3.0,83,0.00,,,0.00,503.00,VWS V14.01,2013-08-04 14:03:00,
2013-08-04 09:08:00,80.9,74.5,30.06,East,80,5.0,7.0,81,0.00,,,0.00,552.00,VWS V14.01,2013-08-04 14:08:00,
2013-08-04 09:13:00,80.8,74.1,30.06,East,83,2.0,6.0,80,0.00,,,0.00,468.00,VWS V14.01,2013-08-04 14:13:00,
2013-08-04 09:17:00,80.7,74.0,30.06,SE,126,1.0,6.0,80,0.00,,,0.00,506.00,VWS V14.01,2013-08-04 14:17:00,
2013-08-04 09:23:00,80.8,74.4,30.07,ESE,103,0.0,4.0,81,0.00,,,0.00,529.00,VWS V14.01,2013-08-04 14:23:00,
2013-08-04 09:28:00,81.6,74.8,30.06,East,101,0.0,4.0,80,0.00,,,0.00,540.00,VWS V14.01,2013-08-04 14:28:00,
2013-08-04 09:33:00,82.4,75.2,30.06,ESE,111,0.0,3.0,79,0.00,,,0.00,631.00,VWS V14.01,2013-08-04 14:33:00,
2013-08-04 09:38:00,82.9,74.9,30.07,SE,135,3.0,5.0,77,0.00,,,0.00,613.00,VWS V14.01,2013-08-04 14:38:00,
2013-08-04 09:43:00,82.8,74.9,30.07,SE,126,2.0,4.0,77,0.00,,,0.00,656.00,VWS V14.01,2013-08-04 14:43:00,
2013-08-04 09:48:00,83.2,74.8,30.07,ESE,105,1.0,5.0,76,0.00,,,0.00,675.00,VWS V14.01,2013-08-04 14:48:00,
2013-08-04 09:53:00,83.6,75.2,30.06,ESE,114,1.0,4.0,76,0.00,,,0.00,715.00,VWS V14.01,2013-08-04 14:53:00,
2013-08-04 09:58:00,84.0,75.2,30.07,East,91,2.0,4.0,75,0.00,,,0.00,480.00,VWS V14.01,2013-08-04 14:58:00,
2013-08-04 10:03:00,84.6,75.8,30.07,ESE,109,1.0,5.0,75,0.00,,,0.00,735.00,VWS V14.01,2013-08-04 15:03:00,
2013-08-04 10:08:00,85.0,75.4,30.07,NNE,28,4.0,5.0,73,0.00,,,0.00,675.00,VWS V14.01,2013-08-04 15:08:00,
2013-08-04 10:13:00,85.4,75.8,30.08,ENE,75,1.0,4.0,73,0.00,,,0.00,729.00,VWS V14.01,2013-08-04 15:13:00,
2013-08-04 10:18:00,85.7,75.6,30.07,ESE,105,1.0,6.0,72,0.00,,,0.00,833.00,VWS V14.01,2013-08-04 15:18:00,
2013-08-04 10:23:00,85.7,75.2,30.07,East,82,2.0,5.0,71,0.00,,,0.00,846.00,VWS V14.01,2013-08-04 15:23:00,
2013-08-04 10:28:00,86.0,75.9,30.07,ESE,102,1.0,5.0,72,0.00,,,0.00,870.00,VWS V14.01,2013-08-04 15:28:00,
2013-08-04 10:33:00,85.8,74.5,30.07,NE,49,0.0,4.0,69,0.00,,,0.00,489.00,VWS V14.01,2013-08-04 15:33:00,
2013-08-04 10:38:00,84.9,74.4,30.07,East,86,1.0,6.0,71,0.00,,,0.00,234.00,VWS V14.01,2013-08-04 15:38:00,
2013-08-04 10:43:00,84.9,74.0,30.07,NE,46,2.0,4.0,70,0.00,,,0.00,898.00,VWS V14.01,2013-08-04 15:43:00,
2013-08-04 10:48:00,84.8,74.4,30.07,ESE,104,0.0,5.0,71,0.00,,,0.00,853.00,VWS V14.01,2013-08-04 15:48:00,
2013-08-04 10:53:00,86.0,75.1,30.07,NE,56,0.0,3.0,70,0.00,,,0.00,912.00,VWS V14.01,2013-08-04 15:53:00,
2013-08-04 10:58:00,86.5,74.7,30.07,NE,53,1.0,6.0,68,0.00,,,0.00,967.00,VWS V14.01,2013-08-04 15:58:00,
2013-08-04 11:03:00,85.9,73.7,30.07,ESE,109,0.0,4.0,67,0.00,,,0.00,909.00,VWS V14.01,2013-08-04 16:03:00,
2013-08-04 11:08:00,85.3,74.0,30.07,ESE,114,3.0,7.0,69,0.00,,,0.00,949.00,VWS V14.01,2013-08-04 16:08:00,
2013-08-04 11:13:00,85.7,74.8,30.07,ESE,107,2.0,5.0,70,0.00,,,0.00,949.00,VWS V14.01,2013-08-04 16:13:00,
2013-08-04 11:18:00,86.1,74.3,30.07,East,98,7.0,7.0,68,0.00,,,0.00,953.00,VWS V14.01,2013-08-04 16:18:00,
2013-08-04 11:23:00,86.6,74.8,30.07,ESE,115,7.0,8.0,68,0.00,,,0.00,958.00,VWS V14.01,2013-08-04 16:23:00,
2013-08-04 11:28:00,87.0,74.7,30.07,ENE,64,2.0,8.0,67,0.00,,,0.00,1009.00,VWS V14.01,2013-08-04 16:28:00,
2013-08-04 11:33:00,87.1,74.4,30.06,NE,50,1.0,2.0,66,0.00,,,0.00,294.00,VWS V14.01,2013-08-04 16:33:00,
2013-08-04 11:38:00,86.8,75.0,30.06,East,79,5.0,7.0,68,0.00,,,0.00,988.00,VWS V14.01,2013-08-04 16:38:00,
2013-08-04 11:43:00,87.5,73.8,30.06,East,94,2.0,6.0,64,0.00,,,0.00,983.00,VWS V14.01,2013-08-04 16:43:00,
2013-08-04 11:47:00,87.1,74.4,30.06,East,98,3.0,6.0,66,0.00,,,0.00,1014.00,VWS V14.01,2013-08-04 16:47:00,
2013-08-04 11:52:00,87.2,74.0,30.06,ENE,74,1.0,4.0,65,0.00,,,0.00,1048.00,VWS V14.01,2013-08-04 16:52:00,
2013-08-04 11:58:00,87.3,74.6,30.05,ESE,123,3.0,6.0,66,0.00,,,0.00,1048.00,VWS V14.01,2013-08-04 16:58:00,
2013-08-04 12:03:00,87.2,74.0,30.06,East,90,2.0,6.0,65,0.00,,,0.00,295.00,VWS V14.01,2013-08-04 17:03:00,
2013-08-04 12:08:00,87.1,73.4,30.06,North,5,6.0,6.0,64,0.00,,,0.00,216.00,VWS V14.01,2013-08-04 17:08:00,
2013-08-04 12:13:00,86.8,73.2,30.06,NW,307,0.0,4.0,64,0.00,,,0.00,1120.00,VWS V14.01,2013-08-04 17:13:00,
2013-08-04 12:18:00,87.7,74.5,30.06,NNW,342,2.0,4.0,65,0.00,,,0.00,332.00,VWS V14.01,2013-08-04 17:18:00,
2013-08-04 12:23:00,87.4,73.3,30.05,East,83,1.0,8.0,63,0.00,,,0.00,367.00,VWS V14.01,2013-08-04 17:23:00,
2013-08-04 12:28:00,86.8,73.6,30.06,ESE,119,1.0,8.0,65,0.00,,,0.00,376.00,VWS V14.01,2013-08-04 17:28:00,
2013-08-04 12:33:00,87.0,72.9,30.05,North,349,1.0,6.0,63,0.00,,,0.00,318.00,VWS V14.01,2013-08-04 17:33:00,
2013-08-04 12:38:00,87.0,73.8,30.05,ESE,103,3.0,8.0,65,0.00,,,0.00,473.00,VWS V14.01,2013-08-04 17:38:00,
2013-08-04 12:43:00,86.5,73.3,30.05,ESE,111,1.0,7.0,65,0.00,,,0.00,299.00,VWS V14.01,2013-08-04 17:43:00,
2013-08-04 12:48:00,87.1,73.9,30.05,East,94,2.0,8.0,65,0.00,,,0.00,962.00,VWS V14.01,2013-08-04 17:48:00,
2013-08-04 12:53:00,87.1,73.0,30.05,East,95,3.0,6.0,63,0.00,,,0.00,374.00,VWS V14.01,2013-08-04 17:53:00,
2013-08-04 12:58:00,88.1,74.4,30.05,NNE,17,0.0,6.0,64,0.00,,,0.00,1155.00,VWS V14.01,2013-08-04 17:58:00,
2013-08-04 13:03:00,87.9,74.2,30.05,ESE,122,5.0,7.0,64,0.00,,,0.00,381.00,VWS V14.01,2013-08-04 18:03:00,
2013-08-04 13:08:00,87.1,73.9,30.05,ESE,123,0.0,7.0,65,0.00,,,0.00,315.00,VWS V14.01,2013-08-04 18:08:00,
2013-08-04 13:13:00,87.2,73.1,30.04,East,84,3.0,7.0,63,0.00,,,0.00,360.00,VWS V14.01,2013-08-04 18:13:00,
2013-08-04 13:18:00,87.1,73.4,30.04,East,86,0.0,7.0,64,0.00,,,0.00,374.00,VWS V14.01,2013-08-04 18:18:00,
2013-08-04 13:23:00,87.4,73.7,30.04,East,92,0.0,2.0,64,0.00,,,0.00,689.00,VWS V14.01,2013-08-04 18:23:00,
2013-08-04 13:28:00,88.3,73.6,30.04,East,92,3.0,5.0,62,0.00,,,0.00,490.00,VWS V14.01,2013-08-04 18:28:00,
2013-08-04 13:33:00,88.2,74.0,30.03,East,94,1.0,5.0,63,0.00,,,0.00,343.00,VWS V14.01,2013-08-04 18:33:00,
2013-08-04 13:38:00,87.9,73.3,30.03,East,92,2.0,5.0,62,0.00,,,0.00,309.00,VWS V14.01,2013-08-04 18:38:00,
2013-08-04 13:43:00,87.7,73.1,30.03,East,98,2.0,3.0,62,0.00,,,0.00,264.00,VWS V14.01,2013-08-04 18:43:00,
2013-08-04 13:48:00,87.5,73.4,30.03,ESE,115,0.0,4.0,63,0.00,,,0.00,401.00,VWS V14.01,2013-08-04 18:48:00,
2013-08-04 13:53:00,88.2,73.6,30.03,East,93,6.0,7.0,62,0.00,,,0.00,1150.00,VWS V14.01,2013-08-04 18:53:00,
2013-08-04 13:58:00,88.0,73.4,30.03,East,90,5.0,7.0,62,0.00,,,0.00,281.00,VWS V14.01,2013-08-04 18:58:00,
2013-08-04 14:03:00,87.5,72.9,30.03,East,98,1.0,3.0,62,0.00,,,0.00,281.00,VWS V14.01,2013-08-04 19:03:00,
2013-08-04 14:08:00,87.5,72.9,30.03,East,95,0.0,6.0,62,0.00,,,0.00,401.00,VWS V14.01,2013-08-04 19:08:00,
2013-08-04 14:13:00,87.3,73.6,30.03,East,101,2.0,8.0,64,0.00,,,0.00,329.00,VWS V14.01,2013-08-04 19:13:00,
2013-08-04 14:18:00,87.2,73.6,30.03,NE,44,3.0,8.0,64,0.00,,,0.00,380.00,VWS V14.01,2013-08-04 19:18:00,
2013-08-04 14:23:00,87.3,72.7,30.03,East,84,2.0,5.0,62,0.00,,,0.00,445.00,VWS V14.01,2013-08-04 19:23:00,
2013-08-04 14:28:00,87.9,73.7,30.03,East,96,2.0,5.0,63,0.00,,,0.00,1127.00,VWS V14.01,2013-08-04 19:28:00,
2013-08-04 14:33:00,88.4,74.2,30.03,ESE,117,5.0,8.0,63,0.00,,,0.00,285.00,VWS V14.01,2013-08-04 19:33:00,
2013-08-04 14:38:00,87.8,73.2,30.02,ESE,102,1.0,8.0,62,0.00,,,0.00,278.00,VWS V14.01,2013-08-04 19:38:00,
2013-08-04 14:43:00,87.7,73.1,30.02,ESE,104,3.0,5.0,62,0.00,,,0.00,316.00,VWS V14.01,2013-08-04 19:43:00,
2013-08-04 14:48:00,87.9,73.7,30.02,East,101,1.0,5.0,63,0.00,,,0.00,348.00,VWS V14.01,2013-08-04 19:48:00,
2013-08-04 14:53:00,88.0,73.4,30.02,East,79,1.0,6.0,62,0.00,,,0.00,279.00,VWS V14.01,2013-08-04 19:53:00,
2013-08-04 14:58:00,88.0,73.8,30.02,ENE,63,1.0,6.0,63,0.00,,,0.00,258.00,VWS V14.01,2013-08-04 19:58:00,
2013-08-04 15:03:00,87.8,73.2,30.01,East,96,0.0,6.0,62,0.00,,,0.00,970.00,VWS V14.01,2013-08-04 20:03:00,
2013-08-04 15:08:00,88.6,73.9,30.02,NE,40,0.0,6.0,62,0.00,,,0.00,751.00,VWS V14.01,2013-08-04 20:08:00,
2013-08-04 15:13:00,89.1,73.9,30.01,ENE,67,3.0,3.0,61,0.00,,,0.00,550.00,VWS V14.01,2013-08-04 20:13:00,
2013-08-04 15:18:00,88.9,73.2,30.01,South,183,0.0,5.0,60,0.00,,,0.00,260.00,VWS V14.01,2013-08-04 20:18:00,
2013-08-04 15:23:00,88.6,73.4,30.01,North,10,2.0,2.0,61,0.00,,,0.00,192.00,VWS V14.01,2013-08-04 20:23:00,
2013-08-04 15:28:00,88.5,73.3,30.01,East,91,1.0,3.0,61,0.00,,,0.00,278.00,VWS V14.01,2013-08-04 20:28:00,
2013-08-04 15:33:00,88.4,73.7,30.01,East,98,2.0,7.0,62,0.00,,,0.00,779.00,VWS V14.01,2013-08-04 20:33:00,
2013-08-04 15:38:00,88.0,73.4,30.01,East,94,5.0,8.0,62,0.00,,,0.00,237.00,VWS V14.01,2013-08-04 20:38:00,
2013-08-04 15:43:00,87.7,73.1,30.00,East,88,5.0,7.0,62,0.00,,,0.00,397.00,VWS V14.01,2013-08-04 20:43:00,
2013-08-04 15:48:00,87.5,73.4,30.00,ESE,104,1.0,7.0,63,0.00,,,0.00,385.00,VWS V14.01,2013-08-04 20:48:00,
2013-08-04 15:53:00,88.0,73.8,30.00,NE,46,1.0,4.0,63,0.00,,,0.00,714.00,VWS V14.01,2013-08-04 20:53:00,
2013-08-04 15:58:00,88.2,73.6,30.00,NNE,25,3.0,6.0,62,0.00,,,0.00,200.00,VWS V14.01,2013-08-04 20:58:00,
2013-08-04 16:03:00,88.1,73.4,30.00,North,360,1.0,3.0,62,0.00,,,0.00,221.00,VWS V14.01,2013-08-04 21:03:00,
2013-08-04 16:08:00,88.1,73.9,30.00,East,98,1.0,5.0,63,0.00,,,0.00,334.00,VWS V14.01,2013-08-04 21:08:00,
2013-08-04 16:13:00,88.6,74.4,30.00,ENE,74,3.0,7.0,63,0.00,,,0.00,754.00,VWS V14.01,2013-08-04 21:13:00,
2013-08-04 16:18:00,89.0,74.3,30.00,NE,39,3.0,7.0,62,0.00,,,0.00,311.00,VWS V14.01,2013-08-04 21:18:00,
2013-08-04 16:23:00,89.0,74.3,30.00,East,86,2.0,8.0,62,0.00,,,0.00,478.00,VWS V14.01,2013-08-04 21:23:00,
2013-08-04 16:28:00,88.4,74.7,30.00,East,90,3.0,8.0,64,0.00,,,0.00,432.00,VWS V14.01,2013-08-04 21:28:00,
2013-08-04 16:33:00,88.4,74.2,30.00,ENE,59,1.0,5.0,63,0.00,,,0.00,290.00,VWS V14.01,2013-08-04 21:33:00,
2013-08-04 16:38:00,88.7,75.0,30.00,East,93,5.0,5.0,64,0.00,,,0.00,680.00,VWS V14.01,2013-08-04 21:38:00,
2013-08-04 16:43:00,88.9,74.2,30.00,East,83,2.0,6.0,62,0.00,,,0.00,621.00,VWS V14.01,2013-08-04 21:43:00,
2013-08-04 16:48:00,88.5,74.3,30.00,East,90,1.0,7.0,63,0.00,,,0.00,635.00,VWS V14.01,2013-08-04 21:48:00,
2013-08-04 16:49:00,88.5,74.8,30.00,East,87,3.0,7.0,64,0.00,,,0.00,635.00,VWS V14.01,2013-08-04 21:49:00,
2013-08-04 16:54:00,88.3,73.6,30.00,ENE,76,1.0,7.0,62,0.00,,,0.00,283.00,VWS V14.01,2013-08-04 21:54:00,
2013-08-04 16:59:00,87.8,73.6,30.00,East,94,3.0,9.0,63,0.00,,,0.00,369.00,VWS V14.01,2013-08-04 21:59:00,
2013-08-04 17:04:00,87.7,73.6,30.00,East,91,7.0,8.0,63,0.00,,,0.00,503.00,VWS V14.01,2013-08-04 22:04:00,
2013-08-04 17:09:00,88.0,73.8,29.99,ENE,68,2.0,8.0,63,0.00,,,0.00,306.00,VWS V14.01,2013-08-04 22:09:00,
2013-08-04 17:14:00,88.2,74.0,29.99,ENE,69,0.0,4.0,63,0.00,,,0.00,232.00,VWS V14.01,2013-08-04 22:14:00,
2013-08-04 17:19:00,88.1,73.4,29.99,NE,51,3.0,4.0,62,0.00,,,0.00,207.00,VWS V14.01,2013-08-04 22:19:00,
2013-08-04 17:24:00,87.9,73.7,29.99,NNE,22,1.0,5.0,63,0.00,,,0.00,318.00,VWS V14.01,2013-08-04 22:24:00,
2013-08-04 17:29:00,87.7,73.6,29.99,East,101,5.0,6.0,63,0.00,,,0.00,237.00,VWS V14.01,2013-08-04 22:29:00,
2013-08-04 17:34:00,87.4,73.7,30.00,North,11,1.0,7.0,64,0.00,,,0.00,237.00,VWS V14.01,2013-08-04 22:34:00,
2013-08-04 17:39:00,87.4,73.7,30.00,East,90,5.0,7.0,64,0.00,,,0.00,221.00,VWS V14.01,2013-08-04 22:39:00,
2013-08-04 17:44:00,87.4,73.7,30.00,ENE,78,2.0,4.0,64,0.00,,,0.00,225.00,VWS V14.01,2013-08-04 22:44:00,
2013-08-04 17:49:00,87.1,73.4,30.00,NE,47,4.0,7.0,64,0.00,,,0.00,248.00,VWS V14.01,2013-08-04 22:49:00,
2013-08-04 17:54:00,87.0,73.8,30.00,East,91,1.0,8.0,65,0.00,,,0.00,234.00,VWS V14.01,2013-08-04 22:54:00,
2013-08-04 17:59:00,86.9,73.7,29.99,East,91,3.0,9.0,65,0.00,,,0.00,274.00,VWS V14.01,2013-08-04 22:59:00,
2013-08-04 18:03:00,86.9,73.7,29.99,East,80,0.0,6.0,65,0.00,,,0.00,206.00,VWS V14.01,2013-08-04 23:03:00,
2013-08-04 18:09:00,86.6,73.9,29.99,East,82,1.0,11.0,66,0.00,,,0.00,123.00,VWS V14.01,2013-08-04 23:09:00,
2013-08-04 18:14:00,86.2,74.0,30.00,East,89,1.0,5.0,67,0.00,,,0.00,90.00,VWS V14.01,2013-08-04 23:14:00,
2013-08-04 18:19:00,85.9,73.7,29.99,ENE,69,3.0,7.0,67,0.00,,,0.00,97.00,VWS V14.01,2013-08-04 23:19:00,
2013-08-04 18:24:00,85.6,73.8,30.00,East,90,1.0,6.0,68,0.00,,,0.00,97.00,VWS V14.01,2013-08-04 23:24:00,
2013-08-04 18:29:00,85.3,73.6,30.00,East,90,5.0,6.0,68,0.00,,,0.00,90.00,VWS V14.01,2013-08-04 23:29:00,
2013-08-04 18:34:00,85.2,73.4,30.00,East,84,0.0,6.0,68,0.00,,,0.00,83.00,VWS V14.01,2013-08-04 23:34:00,
2013-08-04 18:39:00,85.0,73.7,30.00,East,96,0.0,6.0,69,0.00,,,0.00,77.00,VWS V14.01,2013-08-04 23:39:00,
2013-08-04 18:44:00,84.9,73.6,30.00,ENE,71,1.0,6.0,69,0.00,,,0.00,74.00,VWS V14.01,2013-08-04 23:44:00,
2013-08-04 18:49:00,84.7,73.4,30.00,NE,54,2.0,6.0,69,0.00,,,0.00,70.00,VWS V14.01,2013-08-04 23:49:00,
2013-08-04 18:54:00,84.6,73.3,30.01,ESE,103,1.0,5.0,69,0.00,,,0.00,63.00,VWS V14.01,2013-08-04 23:54:00,
2013-08-04 18:59:00,84.5,73.2,30.00,East,95,1.0,5.0,69,0.00,,,0.00,58.00,VWS V14.01,2013-08-04 23:59:00,
2013-08-04 19:04:00,84.4,73.6,30.00,East,98,3.0,3.0,70,0.00,,,0.00,51.00,VWS V14.01,2013-08-05 00:04:00,
2013-08-04 19:09:00,84.3,73.5,30.00,NE,40,2.0,5.0,70,0.00,,,0.00,44.00,VWS V14.01,2013-08-05 00:09:00,
2013-08-04 19:14:00,84.1,73.7,30.01,NE,53,0.0,3.0,71,0.00,,,0.00,35.00,VWS V14.01,2013-08-05 00:14:00,
2013-08-04 19:19:00,83.9,73.5,30.00,NE,56,3.0,6.0,71,0.00,,,0.00,28.00,VWS V14.01,2013-08-05 00:19:00,
2013-08-04 19:24:00,83.7,73.3,30.01,East,79,0.0,3.0,71,0.00,,,0.00,21.00,VWS V14.01,2013-08-05 00:24:00,
2013-08-04 19:28:00,83.6,73.6,30.01,East,83,3.0,3.0,72,0.00,,,0.00,16.00,VWS V14.01,2013-08-05 00:28:00,
2013-08-04 19:34:00,83.4,73.0,30.00,ENE,67,2.0,4.0,71,0.00,,,0.00,11.00,VWS V14.01,2013-08-05 00:34:00,
2013-08-04 19:39:00,83.3,73.3,30.00,East,81,1.0,4.0,72,0.00,,,0.00,5.00,VWS V14.01,2013-08-05 00:39:00,
2013-08-04 19:44:00,83.2,73.2,30.00,East,81,0.0,3.0,72,0.00,,,0.00,0.00,VWS V14.01,2013-08-05 00:44:00,
2013-08-04 19:49:00,83.1,73.1,30.01,NE,52,0.0,5.0,72,0.00,,,0.00,0.00,VWS V14.01,2013-08-05 00:49:00,
2013-08-04 19:54:00,82.9,72.9,30.01,NE,44,0.0,4.0,72,0.00,,,0.00,0.00,VWS V14.01,2013-08-05 00:54:00,
2013-08-04 19:59:00,82.7,73.2,30.01,ENE,57,1.0,4.0,73,0.00,,,0.00,0.00,VWS V14.01,2013-08-05 00:59:00,
2013-08-04 20:04:00,82.6,73.1,30.01,ENE,67,2.0,3.0,73,0.00,,,0.00,0.00,VWS V14.01,2013-08-05 01:04:00,
2013-08-04 20:09:00,82.5,73.0,30.01,East,90,0.0,5.0,73,0.00,,,0.00,0.00,VWS V14.01,2013-08-05 01:09:00,
2013-08-04 20:14:00,82.3,73.2,30.01,NE,42,0.0,6.0,74,0.00,,,0.00,0.00,VWS V14.01,2013-08-05 01:14:00,
2013-08-04 20:19:00,82.1,73.0,30.01,NE,36,0.0,6.0,74,0.00,,,0.00,0.00,VWS V14.01,2013-08-05 01:19:00,
2013-08-04 20:24:00,81.9,72.8,30.02,NE,47,0.0,3.0,74,0.00,,,0.00,0.00,VWS V14.01,2013-08-05 01:24:00,
2013-08-04 20:29:00,81.7,73.0,30.01,ENE,68,2.0,4.0,75,0.00,,,0.00,0.00,VWS V14.01,2013-08-05 01:29:00,
2013-08-04 20:34:00,81.5,72.8,30.01,ENE,68,2.0,3.0,75,0.00,,,0.00,0.00,VWS V14.01,2013-08-05 01:34:00,
2013-08-04 20:39:00,81.3,73.0,30.01,ENE,68,0.0,3.0,76,0.00,,,0.00,0.00,VWS V14.01,2013-08-05 01:39:00,
2013-08-04 20:44:00,81.0,72.7,30.01,ENE,68,0.0,3.0,76,0.00,,,0.00,0.00,VWS V14.01,2013-08-05 01:44:00,
2013-08-04 20:49:00,80.9,72.6,30.02,ENE,69,0.0,3.0,76,0.00,,,0.00,0.00,VWS V14.01,2013-08-05 01:49:00,
2013-08-04 20:54:00,80.7,72.4,30.02,ENE,69,0.0,1.0,76,0.00,,,0.00,0.00,VWS V14.01,2013-08-05 01:54:00,
2013-08-04 20:59:00,80.6,72.7,30.01,ENE,69,0.0,1.0,77,0.00,,,0.00,0.00,VWS V14.01,2013-08-05 01:59:00,
2013-08-04 21:04:00,80.4,72.5,30.02,ENE,69,0.0,2.0,77,0.00,,,0.00,0.00,VWS V14.01,2013-08-05 02:04:00,
2013-08-04 21:09:00,80.3,72.4,30.02,ENE,69,0.0,2.0,77,0.00,,,0.00,0.00,VWS V14.01,2013-08-05 02:09:00,
2013-08-04 21:14:00,80.2,72.7,30.02,ENE,69,0.0,1.0,78,0.00,,,0.00,0.00,VWS V14.01,2013-08-05 02:14:00,
2013-08-04 21:19:00,80.1,72.6,30.02,ENE,69,0.0,1.0,78,0.00,,,0.00,0.00,VWS V14.01,2013-08-05 02:19:00,
2013-08-04 21:24:00,80.1,72.6,30.02,ENE,69,0.0,1.0,78,0.00,,,0.00,0.00,VWS V14.01,2013-08-05 02:24:00,
2013-08-04 21:29:00,80.1,72.6,30.02,ENE,69,0.0,1.0,78,0.00,,,0.00,0.00,VWS V14.01,2013-08-05 02:29:00,
2013-08-04 21:34:00,80.0,72.5,30.02,ENE,69,0.0,0.0,78,0.00,,,0.00,0.00,VWS V14.01,2013-08-05 02:34:00,
2013-08-04 21:39:00,80.0,72.5,30.03,ENE,69,0.0,0.0,78,0.00,,,0.00,0.00,VWS V14.01,2013-08-05 02:39:00,
2013-08-04 21:44:00,79.9,72.4,30.03,ENE,69,0.0,0.0,78,0.00,,,0.00,0.00,VWS V14.01,2013-08-05 02:44:00,
2013-08-04 21:49:00,79.9,72.4,30.03,ENE,69,0.0,1.0,78,0.00,,,0.00,0.00,VWS V14.01,2013-08-05 02:49:00,
2013-08-04 21:54:00,79.9,72.4,30.03,ENE,69,0.0,1.0,78,0.00,,,0.00,0.00,VWS V14.01,2013-08-05 02:54:00,
2013-08-04 21:59:00,79.9,72.4,30.03,ENE,69,0.0,2.0,78,0.00,,,0.00,0.00,VWS V14.01,2013-08-05 02:59:00,
2013-08-04 22:04:00,79.9,72.1,30.02,ENE,69,0.0,3.0,77,0.00,,,0.00,0.00,VWS V14.01,2013-08-05 03:04:00,
2013-08-04 22:08:00,79.9,72.1,30.03,ENE,69,0.0,3.0,77,0.00,,,0.00,0.00,VWS V14.01,2013-08-05 03:08:00,
2013-08-04 22:14:00,79.9,72.1,30.02,ENE,69,0.0,1.0,77,0.00,,,0.00,0.00,VWS V14.01,2013-08-05 03:14:00,
2013-08-04 22:19:00,79.8,71.9,30.02,ENE,69,0.0,1.0,77,0.00,,,0.00,0.00,VWS V14.01,2013-08-05 03:19:00,
2013-08-04 22:23:00,79.8,71.9,30.02,ENE,69,1.0,3.0,77,0.00,,,0.00,0.00,VWS V14.01,2013-08-05 03:23:00,
2013-08-04 22:28:00,79.7,71.9,30.02,ENE,69,2.0,3.0,77,0.00,,,0.00,0.00,VWS V14.01,2013-08-05 03:28:00,
2013-08-04 22:34:00,79.6,72.1,30.02,ENE,69,1.0,2.0,78,0.00,,,0.00,0.00,VWS V14.01,2013-08-05 03:34:00,
2013-08-04 22:39:00,79.5,71.7,30.02,ENE,71,0.0,2.0,77,0.00,,,0.00,0.00,VWS V14.01,2013-08-05 03:39:00,
2013-08-04 22:44:00,79.4,71.6,30.03,ENE,76,0.0,2.0,77,0.00,,,0.00,0.00,VWS V14.01,2013-08-05 03:44:00,
2013-08-04 22:49:00,79.3,71.5,30.02,ENE,78,1.0,2.0,77,0.00,,,0.00,0.00,VWS V14.01,2013-08-05 03:49:00,
2013-08-04 22:54:00,79.3,71.5,30.02,ENE,78,1.0,2.0,77,0.00,,,0.00,0.00,VWS V14.01,2013-08-05 03:54:00,
2013-08-04 22:59:00,79.3,71.5,30.03,ENE,78,0.0,3.0,77,0.00,,,0.00,0.00,VWS V14.01,2013-08-05 03:59:00,
2013-08-04 23:01:00,79.3,71.1,30.03,ENE,78,1.0,1.0,76,0.00,,,0.00,0.00,VWS V14.01,2013-08-05 04:01:00,
2013-08-04 23:06:00,79.2,71.0,30.02,ENE,78,2.0,3.0,76,0.00,,,0.00,0.00,VWS V14.01,2013-08-05 04:06:00,
2013-08-04 23:11:00,79.1,70.9,30.03,ENE,78,2.0,2.0,76,0.00,,,0.00,0.00,VWS V14.01,2013-08-05 04:11:00,
2013-08-04 23:16:00,79.1,70.9,30.02,ENE,78,2.0,3.0,76,0.00,,,0.00,0.00,VWS V14.01,2013-08-05 04:16:00,
2013-08-04 23:21:00,79.0,70.8,30.02,East,98,2.0,3.0,76,0.00,,,0.00,0.00,VWS V14.01,2013-08-05 04:21:00,
2013-08-04 23:26:00,78.9,70.7,30.02,East,98,1.0,3.0,76,0.00,,,0.00,0.00,VWS V14.01,2013-08-05 04:26:00,
2013-08-04 23:31:00,78.7,70.5,30.02,East,98,1.0,3.0,76,0.00,,,0.00,0.00,VWS V14.01,2013-08-05 04:31:00,
2013-08-04 23:36:00,78.7,70.5,30.02,East,98,3.0,5.0,76,0.00,,,0.00,0.00,VWS V14.01,2013-08-05 04:36:00,
2013-08-04 23:41:00,78.7,70.5,30.01,East,98,1.0,3.0,76,0.00,,,0.00,0.00,VWS V14.01,2013-08-05 04:41:00,
2013-08-04 23:46:00,78.6,70.4,30.02,ESE,102,2.0,5.0,76,0.00,,,0.00,0.00,VWS V14.01,2013-08-05 04:46:00,
2013-08-04 23:51:00,78.4,70.2,30.02,East,98,3.0,6.0,76,0.00,,,0.00,0.00,VWS V14.01,2013-08-05 04:51:00,
2013-08-04 23:56:00,78.3,70.5,30.02,ESE,113,4.0,6.0,77,0.00,,,0.00,0.00,VWS V14.01,2013-08-05 04:56:00,